Time;durP1;ratioP1;P1;durP2;ratioP2;P2;SDS_P1;SDS_P2;PMS_P1;PMS_P2;Temp;Humidity;BMP_temperature;BMP_pressure;BME280_temperature;BME280_humidity;BME280_pressure;Samples;Min_cycle;Max_cycle;Signal;HPM_P1;HPM_P2
2022/02/04 00:01:43;;;;;;;5.60;3.73;;;6.40;99.90;;;;;;4993500;28;20614;-74
2022/02/04 00:04:14;;;;;;;5.13;3.67;;;6.30;99.90;;;;;;4993499;28;20486;-74
2022/02/04 00:24:41;;;;;;;9.70;4.43;;;6.30;99.90;;;;;;4992661;28;20411;-74
2022/02/04 00:27:13;;;;;;;10.60;6.30;;;6.40;99.90;;;;;;4992748;28;20411;-74
2022/02/04 00:29:58;;;;;;;7.77;5.27;;;6.30;99.90;;;;;;4992401;28;20177;-73
2022/02/04 00:32:26;;;;;;;12.80;6.23;;;6.40;99.90;;;;;;4992713;28;20443;-73
2022/02/04 00:35:01;;;;;;;7.33;4.87;;;6.40;99.90;;;;;;4992424;28;20456;-73
2022/02/04 00:37:38;;;;;;;7.40;4.33;;;6.40;99.90;;;;;;4992799;28;20403;-74
2022/02/04 00:40:12;;;;;;;11.63;5.40;;;6.40;99.90;;;;;;4991132;28;20482;-74
2022/02/04 00:42:38;;;;;;;8.10;4.50;;;6.40;99.90;;;;;;4992797;28;20416;-74
2022/02/04 00:45:17;;;;;;;13.20;5.37;;;6.40;99.90;;;;;;4992484;28;20428;-74
2022/02/04 00:47:49;;;;;;;10.07;5.73;;;6.40;99.90;;;;;;4992677;28;20196;-74
2022/02/04 00:50:30;;;;;;;8.97;5.70;;;6.40;99.90;;;;;;4992294;28;20443;-73
2022/02/04 00:53:07;;;;;;;9.30;6.73;;;6.40;99.90;;;;;;4992608;28;20400;-73
2022/02/04 00:55:49;;;;;;;9.53;4.97;;;6.40;99.90;;;;;;4992487;28;20428;-73
2022/02/04 01:13:13;;;;;;;8.70;4.50;;;6.40;99.90;;;;;;4992019;28;20498;-74
2022/02/04 01:26:04;;;;;;;11.53;7.73;;;6.30;99.90;;;;;;5015537;23;20544;-69
2022/02/04 01:28:31;;;;;;;6.20;5.10;;;6.30;99.90;;;;;;5014940;28;20927;-70
2022/02/04 01:30:57;;;;;;;14.10;6.37;;;6.30;99.90;;;;;;5014950;28;20397;-68
2022/02/04 01:33:23;;;;;;;9.50;5.93;;;6.30;99.90;;;;;;5014820;28;20789;-67
2022/02/04 01:35:49;;;;;;;14.13;6.10;;;6.30;99.90;;;;;;5014864;28;20427;-67
2022/02/04 01:38:15;;;;;;;10.70;6.43;;;6.40;99.90;;;;;;5014823;28;20542;-67
2022/02/04 01:40:40;;;;;;;14.07;7.30;;;6.40;99.90;;;;;;5014636;28;20820;-68
2022/02/04 01:43:06;;;;;;;14.53;5.57;;;6.40;99.90;;;;;;5014565;28;20226;-68
2022/02/04 01:45:31;;;;;;;11.30;7.93;;;6.40;99.90;;;;;;5012151;28;20207;-68
2022/02/04 01:47:57;;;;;;;9.07;6.30;;;6.40;99.90;;;;;;4995107;28;20236;-68
2022/02/04 01:50:28;;;;;;;11.40;5.93;;;6.40;99.90;;;;;;4994918;28;20203;-68
2022/02/04 01:52:56;;;;;;;9.20;5.60;;;6.40;99.90;;;;;;4994944;28;20556;-69
2022/02/04 01:55:22;;;;;;;8.80;6.17;;;6.40;99.90;;;;;;4994663;28;20468;-69
2022/02/04 01:57:48;;;;;;;11.27;6.67;;;6.40;99.90;;;;;;4994830;28;20431;-69
2022/02/04 02:00:14;;;;;;;7.47;4.80;;;6.40;99.90;;;;;;4994689;28;20408;-68
2022/02/04 02:02:40;;;;;;;10.10;5.27;;;6.40;99.90;;;;;;4994830;28;20753;-68
2022/02/04 02:05:06;;;;;;;12.37;6.43;;;6.40;99.90;;;;;;4994658;28;20428;-68
2022/02/04 02:07:33;;;;;;;8.67;5.50;;;6.40;99.90;;;;;;4994633;28;20599;-69
2022/02/04 02:10:04;;;;;;;8.63;5.10;;;6.40;99.90;;;;;;4993271;28;20440;-68
2022/02/04 02:12:37;;;;;;;10.43;5.40;;;6.40;99.90;;;;;;4994690;28;20408;-68
2022/02/04 02:15:15;;;;;;;10.77;6.30;;;6.30;99.90;;;;;;4994401;28;20456;-69
2022/02/04 02:43:40;;;;;;;9.67;6.37;;;6.20;99.90;;;;;;4994097;28;20566;-68
2022/02/04 02:45:53;;;;;;;11.20;6.13;;;6.30;99.90;;;;;;4989206;28;20437;-68
2022/02/04 02:54:20;;;;;;;12.60;5.97;;;6.20;99.90;;;;;;4994097;28;20455;-69
2022/02/04 02:57:08;;;;;;;9.13;6.23;;;6.20;99.90;;;;;;4993671;28;20942;-68
2022/02/04 02:59:45;;;;;;;10.10;5.63;;;6.20;99.90;;;;;;4993696;28;20403;-68
2022/02/04 03:02:10;;;;;;;9.30;4.80;;;6.20;99.90;;;;;;4993692;28;20910;-68
2022/02/04 03:04:36;;;;;;;7.73;5.33;;;6.30;99.90;;;;;;4993689;28;20409;-68
2022/02/04 03:07:01;;;;;;;8.80;6.67;;;6.20;99.90;;;;;;4993636;28;20235;-69
2022/02/04 03:09:27;;;;;;;7.93;5.90;;;6.20;99.90;;;;;;4993578;28;20216;-68
2022/02/04 03:11:52;;;;;;;12.70;6.97;;;6.20;99.90;;;;;;4993378;28;20169;-68
2022/02/04 03:14:18;;;;;;;9.87;8.83;;;6.10;99.90;;;;;;4993454;28;20709;-68
2022/02/04 03:16:45;;;;;;;12.37;6.90;;;6.20;99.90;;;;;;4993468;28;20281;-68
2022/02/04 03:19:10;;;;;;;9.60;5.33;;;6.10;99.90;;;;;;4993498;28;20177;-68
2022/02/04 03:21:40;;;;;;;8.67;4.83;;;6.10;99.90;;;;;;4993550;28;20415;-68
2022/02/04 03:24:10;;;;;;;12.40;7.93;;;6.10;99.90;;;;;;4993343;28;20187;-68
2022/02/04 03:29:04;;;;;;;8.20;5.40;;;6.10;99.90;;;;;;4993341;28;20412;-69
2022/02/04 03:31:36;;;;;;;12.83;8.40;;;6.10;99.90;;;;;;4993486;28;20407;-68
2022/02/04 03:34:03;;;;;;;8.67;5.50;;;6.10;99.90;;;;;;4993201;28;20224;-69
2022/02/04 03:36:29;;;;;;;7.63;4.53;;;6.10;99.90;;;;;;4993301;28;20451;-69
2022/02/04 03:38:54;;;;;;;9.47;5.50;;;6.10;99.90;;;;;;4991782;28;20801;-68
2022/02/04 03:41:20;;;;;;;9.50;5.00;;;6.10;99.90;;;;;;4993218;28;20168;-68
2022/02/04 03:43:45;;;;;;;10.23;5.70;;;6.00;99.90;;;;;;4992989;28;20177;-69
2022/02/04 03:46:11;;;;;;;8.73;5.67;;;6.00;99.90;;;;;;4993125;28;20344;-69
2022/02/04 03:48:36;;;;;;;7.73;5.37;;;6.10;99.90;;;;;;4993058;28;20181;-69
2022/02/04 03:51:02;;;;;;;8.47;5.50;;;6.10;99.90;;;;;;4992807;28;20639;-68
2022/02/04 03:53:27;;;;;;;7.20;4.30;;;6.10;99.90;;;;;;4992463;28;20200;-68
2022/02/04 03:55:52;;;;;;;9.43;5.60;;;6.10;99.90;;;;;;4992675;28;20223;-69
2022/02/04 03:58:18;;;;;;;10.63;6.33;;;6.00;99.90;;;;;;4992749;28;20702;-68
2022/02/04 04:00:44;;;;;;;7.47;4.57;;;6.00;99.90;;;;;;4992626;28;20228;-69
2022/02/04 04:03:10;;;;;;;7.03;5.23;;;6.00;99.90;;;;;;4992540;28;20169;-68
2022/02/04 04:05:44;;;;;;;8.40;5.80;;;6.00;99.90;;;;;;4992567;28;20225;-69
2022/02/04 04:08:10;;;;;;;17.83;5.53;;;6.00;99.90;;;;;;4992548;28;20414;-69
2022/02/04 04:10:40;;;;;;;9.43;4.93;;;6.10;99.90;;;;;;4992619;28;20864;-68
2022/02/04 04:13:06;;;;;;;7.80;4.80;;;6.10;99.90;;;;;;4992683;28;20957;-68
2022/02/04 04:15:32;;;;;;;14.90;7.10;;;6.10;99.90;;;;;;4990932;28;20496;-68
2022/02/04 04:17:57;;;;;;;5.63;4.17;;;6.10;99.90;;;;;;4992509;28;20435;-68
2022/02/04 04:20:25;;;;;;;9.43;7.03;;;6.10;99.90;;;;;;4992441;28;20171;-68
2022/02/04 04:22:52;;;;;;;14.43;6.27;;;6.10;99.90;;;;;;4992204;28;20169;-69
2022/02/04 04:25:18;;;;;;;11.97;6.97;;;6.00;99.90;;;;;;4992111;28;20451;-68
2022/02/04 04:27:45;;;;;;;10.43;6.60;;;6.00;99.90;;;;;;4992422;28;20408;-68
2022/02/04 04:30:13;;;;;;;10.30;6.23;;;6.00;99.90;;;;;;4992005;28;20416;-68
2022/02/04 04:32:39;;;;;;;14.50;6.73;;;6.00;99.90;;;;;;4992290;28;20836;-69
2022/02/04 04:35:10;;;;;;;8.20;5.53;;;6.00;99.90;;;;;;4992029;28;20542;-68
2022/02/04 04:37:39;;;;;;;20.60;7.57;;;6.00;99.90;;;;;;4992590;28;21053;-68
2022/02/04 04:40:33;;;;;;;10.93;6.00;;;6.00;99.90;;;;;;4992242;28;20407;-68
2022/02/04 04:46:08;;;;;;;10.17;6.10;;;6.00;99.90;;;;;;4992570;28;20424;-68
2022/02/04 05:29:19;;;;;;;5.37;4.53;;;6.10;99.90;;;;;;5011119;28;20490;-68
2022/02/04 05:31:45;;;;;;;12.03;8.00;;;6.10;99.90;;;;;;5011107;28;20893;-68
2022/02/04 05:34:14;;;;;;;9.10;6.10;;;6.10;99.90;;;;;;5011180;28;20554;-68
2022/02/04 05:36:43;;;;;;;9.90;6.07;;;6.10;99.90;;;;;;5011208;28;20514;-68
2022/02/04 05:39:11;;;;;;;10.40;6.17;;;6.10;99.90;;;;;;5011133;28;20403;-68
2022/02/04 05:41:40;;;;;;;14.13;6.47;;;6.00;99.90;;;;;;5011298;28;20411;-68
2022/02/04 05:44:09;;;;;;;8.80;7.10;;;6.00;99.90;;;;;;5011284;28;20415;-69
2022/02/04 05:46:47;;;;;;;12.17;5.93;;;6.10;99.90;;;;;;5011187;28;20430;-68
2022/02/04 05:49:15;;;;;;;9.57;4.87;;;6.00;99.90;;;;;;5011195;28;20486;-69
2022/02/04 05:51:53;;;;;;;11.10;5.30;;;6.00;99.90;;;;;;5011009;28;20415;-68
2022/02/04 05:54:36;;;;;;;10.07;5.23;;;6.10;99.90;;;;;;5011021;28;20439;-68
2022/02/04 05:57:14;;;;;;;12.80;6.30;;;6.00;99.90;;;;;;5011337;28;20419;-68
2022/02/04 06:00:07;;;;;;;6.47;4.93;;;6.00;99.90;;;;;;5012030;28;20395;-68
2022/02/04 06:02:38;;;;;;;11.97;7.63;;;6.00;99.90;;;;;;5014285;28;20449;-69
2022/02/04 06:05:38;;;;;;;8.90;5.43;;;6.00;99.90;;;;;;5014702;28;20423;-69
2022/02/04 06:08:39;;;;;;;6.00;4.50;;;6.00;99.90;;;;;;5014360;28;20411;-69
2022/02/04 06:11:15;;;;;;;7.13;5.20;;;6.00;99.90;;;;;;5014048;28;20775;-69
2022/02/04 06:14:22;;;;;;;9.77;7.20;;;6.00;99.90;;;;;;5014274;28;20967;-68
2022/02/04 06:22:19;;;;;;;10.17;5.23;;;6.00;99.90;;;;;;5014022;28;20780;-69
2022/02/04 06:24:50;;;;;;;6.73;5.00;;;5.90;99.90;;;;;;5014201;28;20417;-69
2022/02/04 06:27:17;;;;;;;6.80;5.53;;;6.00;99.90;;;;;;5014099;28;20446;-69
2022/02/04 06:29:43;;;;;;;10.77;7.27;;;6.10;99.90;;;;;;5013875;28;20427;-69
2022/02/04 06:32:09;;;;;;;16.67;7.70;;;6.10;99.90;;;;;;5013927;28;20415;-69
2022/02/04 06:34:35;;;;;;;12.40;6.57;;;6.00;99.90;;;;;;5013815;28;20520;-69
2022/02/04 06:37:00;;;;;;;6.30;3.93;;;6.10;99.90;;;;;;5013748;28;21011;-69
2022/02/04 06:39:26;;;;;;;13.50;7.60;;;6.00;99.90;;;;;;5013756;28;20661;-69
2022/02/04 06:41:51;;;;;;;14.27;8.50;;;6.00;99.90;;;;;;5013655;28;20239;-69
2022/02/04 06:44:17;;;;;;;8.13;5.93;;;6.00;99.90;;;;;;5013671;28;20176;-69
2022/02/04 06:46:42;;;;;;;10.43;5.53;;;5.90;99.90;;;;;;5013864;28;20199;-69
2022/02/04 06:49:08;;;;;;;9.90;6.07;;;5.90;99.90;;;;;;5013478;28;20754;-69
2022/02/04 06:51:33;;;;;;;6.97;5.77;;;5.90;99.90;;;;;;5013467;28;20180;-69
2022/02/04 06:53:59;;;;;;;10.73;5.67;;;5.90;99.90;;;;;;5013715;28;20192;-69
2022/02/04 06:56:24;;;;;;;10.77;6.00;;;6.00;99.90;;;;;;5013309;28;20188;-69
2022/02/04 06:58:50;;;;;;;13.93;5.90;;;6.00;99.90;;;;;;5012015;28;20176;-69
2022/02/04 07:01:15;;;;;;;14.73;7.83;;;6.00;99.90;;;;;;5012089;28;20234;-69
2022/02/04 07:03:41;;;;;;;11.20;6.00;;;6.00;99.90;;;;;;5013185;28;20176;-69
2022/02/04 07:06:07;;;;;;;7.50;5.23;;;6.00;99.90;;;;;;5013166;28;20284;-69
2022/02/04 07:11:23;;;;;;;8.67;4.70;;;6.00;99.90;;;;;;5012953;28;20192;-69
2022/02/04 07:14:08;;;;;;;10.67;6.30;;;6.00;99.90;;;;;;5013226;28;21035;-69
2022/02/04 07:21:49;;;;;;;12.00;5.10;;;6.20;99.90;;;;;;5011329;28;20414;-68
2022/02/04 07:24:15;;;;;;;9.43;5.63;;;6.20;99.90;;;;;;5012844;28;20407;-68
2022/02/04 07:26:40;;;;;;;11.57;6.40;;;6.20;99.90;;;;;;5013049;28;20203;-68
2022/02/04 07:29:06;;;;;;;12.37;6.87;;;6.20;99.90;;;;;;5012658;28;20181;-69
2022/02/04 07:31:35;;;;;;;16.70;8.57;;;6.20;99.90;;;;;;5012613;28;20180;-69
2022/02/04 07:34:35;;;;;;;8.57;5.50;;;6.20;99.90;;;;;;5012274;28;20590;-69
2022/02/04 07:42:28;;;;;;;7.30;4.60;;;6.20;99.90;;;;;;5013606;28;20410;-68
2022/02/04 07:44:54;;;;;;;14.97;6.17;;;6.30;99.90;;;;;;5012187;28;20403;-69
2022/02/04 07:47:19;;;;;;;11.40;7.53;;;6.30;99.90;;;;;;5010925;28;20194;-69
2022/02/04 07:49:45;;;;;;;10.17;6.97;;;6.30;99.90;;;;;;5012237;28;20218;-69
2022/02/04 07:52:10;;;;;;;6.87;5.27;;;6.30;99.90;;;;;;5011776;28;20234;-69
2022/02/04 07:54:36;;;;;;;9.60;5.33;;;6.40;99.90;;;;;;5012113;28;20192;-69
2022/02/04 07:57:01;;;;;;;6.57;4.83;;;6.40;99.90;;;;;;5012204;28;20199;-68
2022/02/04 07:59:27;;;;;;;9.33;5.43;;;6.30;99.90;;;;;;5011891;28;20528;-68
2022/02/04 08:01:52;;;;;;;7.30;4.53;;;6.30;99.90;;;;;;5011982;28;20200;-69
2022/02/04 08:04:23;;;;;;;7.63;4.90;;;6.30;99.90;;;;;;5011945;28;20318;-69
2022/02/04 08:06:54;;;;;;;8.73;4.80;;;6.40;99.90;;;;;;5012045;28;20200;-69
2022/02/04 08:09:47;;;;;;;8.43;5.03;;;6.40;99.90;;;;;;5011725;28;20427;-69
2022/02/04 08:15:10;;;;;;;11.70;5.10;;;6.40;99.90;;;;;;4992141;28;20466;-69
2022/02/04 08:18:00;;;;;;;9.63;5.20;;;6.50;99.90;;;;;;4992683;28;20400;-68
2022/02/04 08:20:36;;;;;;;12.00;7.67;;;6.50;99.90;;;;;;4992011;28;20417;-68
2022/02/04 08:23:36;;;;;;;6.23;4.00;;;6.50;99.90;;;;;;4991664;28;20435;-68
2022/02/04 08:29:02;;;;;;;8.10;5.07;;;6.50;99.90;;;;;;4992014;28;20407;-69
2022/02/04 08:31:53;;;;;;;11.57;7.63;;;6.50;99.90;;;;;;5002878;28;20494;-69
2022/02/04 08:34:35;;;;;;;12.13;4.50;;;6.60;99.90;;;;;;5011601;28;20487;-69
2022/02/04 08:37:31;;;;;;;6.53;5.07;;;6.60;99.90;;;;;;5007507;28;20457;-69
2022/02/04 08:46:39;;;;;;;11.17;5.50;;;6.60;99.90;;;;;;5011268;28;20411;-69
2022/02/04 08:53:19;;;;;;;6.83;4.07;;;6.80;99.90;;;;;;5011594;28;20724;-69
2022/02/04 08:55:51;;;;;;;8.57;3.80;;;6.80;99.90;;;;;;5011629;28;20427;-68
2022/02/04 08:58:28;;;;;;;5.00;3.63;;;6.70;99.90;;;;;;5011714;28;20410;-69
2022/02/04 09:03:28;;;;;;;5.10;3.97;;;7.00;99.90;;;;;;5031281;28;20403;-68
2022/02/04 09:06:13;;;;;;;8.97;3.63;;;7.00;99.90;;;;;;5030813;28;20430;-68
2022/02/04 09:08:43;;;;;;;4.90;4.40;;;7.00;99.90;;;;;;5013594;28;20439;-68
2022/02/04 09:11:14;;;;;;;5.67;4.73;;;6.90;99.90;;;;;;5011223;28;20550;-68
2022/02/04 09:19:19;;;;;;;5.10;2.70;;;6.90;99.90;;;;;;5011450;28;20430;-68
2022/02/04 09:24:12;;;;;;;4.50;3.03;;;6.90;99.90;;;;;;5011315;28;20450;-68
2022/02/04 09:26:38;;;;;;;5.10;3.20;;;7.00;99.90;;;;;;5010984;28;20446;-68
2022/02/04 09:29:04;;;;;;;9.57;3.97;;;7.00;99.90;;;;;;5011001;28;20423;-68
2022/02/04 09:31:30;;;;;;;4.90;3.10;;;6.90;99.90;;;;;;5011117;28;20787;-68
2022/02/04 09:33:55;;;;;;;3.87;3.37;;;7.10;99.90;;;;;;5012425;28;20539;-69
2022/02/04 09:36:21;;;;;;;4.10;3.67;;;7.20;99.90;;;;;;5014926;28;20200;-69
2022/02/04 09:38:46;;;;;;;14.83;8.50;;;7.10;99.90;;;;;;5014980;28;20619;-68
2022/02/04 09:41:12;;;;;;;5.43;3.83;;;7.10;99.90;;;;;;5014912;28;20195;-69
2022/02/04 09:43:37;;;;;;;10.60;5.20;;;7.20;99.90;;;;;;5014908;28;20165;-69
2022/02/04 09:46:03;;;;;;;8.23;3.60;;;7.10;99.90;;;;;;5014923;28;20246;-69
2022/02/04 09:48:29;;;;;;;4.00;3.60;;;7.00;99.90;;;;;;5015050;28;20810;-68
2022/02/04 09:50:57;;;;;;;6.77;3.60;;;7.00;99.90;;;;;;5015151;28;20618;-68
2022/02/04 10:04:58;;;;;;;21.83;12.37;;;7.10;99.90;;;;;;5014480;28;20407;-69
2022/02/04 10:07:37;;;;;;;10.73;6.53;;;7.30;99.90;;;;;;5013971;28;20423;-69
2022/02/04 10:15:37;;;;;;;3.60;2.73;;;7.10;99.90;;;;;;5014315;28;21074;-68
2022/02/04 10:18:16;;;;;;;5.50;3.70;;;7.10;99.90;;;;;;5014312;28;20410;-69
2022/02/04 10:20:42;;;;;;;6.30;3.13;;;7.10;99.90;;;;;;5014135;28;20415;-68
2022/02/04 10:23:08;;;;;;;4.10;2.70;;;7.00;99.90;;;;;;5014126;28;20403;-68
2022/02/04 10:25:40;;;;;;;5.37;2.90;;;7.00;99.90;;;;;;5014297;28;20867;-68
2022/02/04 10:28:18;;;;;;;8.50;4.07;;;7.00;99.90;;;;;;5014363;28;20399;-68
2022/02/04 10:30:44;;;;;;;5.43;3.23;;;6.90;99.90;;;;;;5013865;28;20749;-68
2022/02/04 10:33:15;;;;;;;7.60;4.40;;;7.00;99.90;;;;;;5013950;28;20415;-69
2022/02/04 10:35:41;;;;;;;3.93;3.50;;;6.90;99.90;;;;;;5013867;28;20645;-68
2022/02/04 10:38:14;;;;;;;3.80;3.33;;;6.90;99.90;;;;;;5014022;28;20403;-69
2022/02/04 10:40:52;;;;;;;6.90;4.00;;;7.00;99.90;;;;;;5014233;28;20403;-67
2022/02/04 10:46:30;;;;;;;6.27;3.50;;;6.90;99.90;;;;;;4998447;28;20459;-68
2022/02/04 10:57:21;;;;;;;3.53;2.80;;;7.40;99.90;;;;;;5003567;28;20534;-68
2022/02/04 11:00:09;;;;;;;9.37;5.10;;;7.30;99.90;;;;;;5013400;28;20400;-68
2022/02/04 11:05:05;;;;;;;4.23;2.87;;;7.40;99.90;;;;;;5013174;28;20403;-68
2022/02/04 11:10:16;;;;;;;4.03;2.67;;;7.60;99.90;;;;;;5012167;28;20415;-68
2022/02/04 11:35:02;;;;;;;4.50;2.97;;;8.10;99.90;;;;;;5012668;28;20457;-69
2022/02/04 11:47:53;;;;;;;5.27;3.20;;;8.00;99.90;;;;;;4990458;28;20409;-67
2022/02/04 11:52:38;;;;;;;5.90;3.43;;;8.30;99.90;;;;;;5012312;28;20395;-67
2022/02/04 11:55:09;;;;;;;4.47;4.07;;;8.50;99.90;;;;;;5012457;28;20452;-67
2022/02/04 11:58:03;;;;;;;5.87;2.80;;;8.50;99.90;;;;;;5011591;28;20425;-68
2022/02/04 12:00:40;;;;;;;5.50;3.23;;;8.40;99.90;;;;;;5012368;28;20400;-68
2022/02/04 12:03:24;;;;;;;9.20;3.93;;;8.40;99.90;;;;;;5012124;28;20435;-67
2022/02/04 12:05:50;;;;;;;3.13;2.23;;;8.40;99.90;;;;;;5012286;28;20509;-68
2022/02/04 12:08:17;;;;;;;5.53;3.37;;;8.40;99.90;;;;;;5012541;28;20403;-68
2022/02/04 12:10:46;;;;;;;5.70;3.07;;;8.30;99.90;;;;;;5012230;28;20738;-68
2022/02/04 12:13:12;;;;;;;5.70;3.57;;;8.30;99.90;;;;;;5012035;28;20415;-68
2022/02/04 12:15:48;;;;;;;3.30;2.40;;;8.30;99.90;;;;;;5012260;28;20468;-67
2022/02/04 12:18:19;;;;;;;7.40;3.50;;;8.30;99.90;;;;;;5012053;28;20408;-68
2022/02/04 12:20:45;;;;;;;3.10;2.87;;;8.50;99.90;;;;;;5012276;28;20412;-69
2022/02/04 12:23:35;;;;;;;3.40;2.67;;;8.50;99.90;;;;;;5011858;28;20779;-68
2022/02/04 12:26:11;;;;;;;3.23;2.87;;;8.50;99.90;;;;;;5003249;28;20228;-68
2022/02/04 12:28:47;;;;;;;6.17;3.73;;;8.40;99.90;;;;;;5011902;28;20407;-68
2022/02/04 12:31:26;;;;;;;4.17;2.83;;;8.50;99.90;;;;;;5011984;28;20895;-68
2022/02/04 12:33:57;;;;;;;5.07;2.63;;;8.50;99.90;;;;;;5009419;28;20458;-68
2022/02/04 12:36:42;;;;;;;2.97;2.77;;;8.50;99.90;;;;;;5011671;28;20924;-68
2022/02/04 12:39:14;;;;;;;2.50;2.30;;;8.60;99.90;;;;;;5011270;28;20453;-67
2022/02/04 12:41:56;;;;;;;5.83;3.07;;;8.50;99.90;;;;;;5011778;28;20420;-68
2022/02/04 12:44:32;;;;;;;3.90;2.90;;;8.50;99.90;;;;;;5011847;28;20408;-68
2022/02/04 12:47:10;;;;;;;9.30;3.00;;;8.50;99.90;;;;;;5011615;28;20461;-68
2022/02/04 12:49:53;;;;;;;2.70;2.03;;;8.50;99.90;;;;;;5020291;28;20418;-68
2022/02/04 12:54:58;;;;;;;3.07;2.57;;;8.40;99.90;;;;;;5031096;28;20787;-68
2022/02/04 12:57:32;;;;;;;3.60;2.27;;;8.50;99.90;;;;;;5031240;28;20458;-68
2022/02/04 13:02:57;;;;;;;2.80;2.23;;;8.50;99.90;;;;;;5019507;28;20407;-68
2022/02/04 13:10:37;;;;;;;2.17;1.80;;;8.50;99.90;;;;;;5016855;28;20403;-68
2022/02/04 13:13:05;;;;;;;4.17;2.67;;;8.50;99.90;;;;;;5015970;28;20425;-68
2022/02/04 13:15:33;;;;;;;3.50;2.00;;;8.60;99.90;;;;;;5015282;28;20215;-68
2022/02/04 13:18:03;;;;;;;2.97;2.00;;;8.50;99.90;;;;;;5015220;28;20481;-68
2022/02/04 13:20:29;;;;;;;3.20;2.20;;;8.60;99.90;;;;;;5015180;28;20404;-68
2022/02/04 13:22:58;;;;;;;5.30;2.50;;;8.70;99.90;;;;;;5015171;28;20434;-68
2022/02/04 13:25:33;;;;;;;3.40;2.80;;;8.60;99.90;;;;;;5015029;28;20486;-68
2022/02/04 13:28:29;;;;;;;3.40;2.50;;;8.70;99.90;;;;;;5014918;28;20453;-68
2022/02/04 13:31:00;;;;;;;3.03;2.30;;;8.80;99.90;;;;;;5011201;28;20862;-68
2022/02/04 13:33:46;;;;;;;8.87;4.10;;;8.70;99.90;;;;;;5023230;28;20414;-68
2022/02/04 13:36:28;;;;;;;2.73;1.60;;;8.70;99.90;;;;;;5015087;28;20431;-68
2022/02/04 13:39:15;;;;;;;4.97;3.20;;;8.70;99.90;;;;;;5014880;28;20404;-68
2022/02/04 13:44:38;;;;;;;2.70;1.93;;;8.70;99.90;;;;;;5014906;28;20495;-69
2022/02/04 13:47:40;;;;;;;4.20;2.53;;;8.70;99.90;;;;;;5014491;28;20419;-67
2022/02/04 13:58:20;;;;;;;5.03;2.97;;;8.60;99.90;;;;;;5015183;28;20408;-69
2022/02/04 14:01:09;;;;;;;3.10;2.23;;;8.70;99.90;;;;;;5014694;28;20403;-69
2022/02/04 14:03:45;;;;;;;3.47;1.80;;;8.70;99.90;;;;;;5014346;28;20493;-67
2022/02/04 14:06:15;;;;;;;3.03;2.80;;;8.70;99.90;;;;;;5014432;28;20797;-69
2022/02/04 14:08:55;;;;;;;6.40;2.00;;;8.80;99.90;;;;;;5014294;28;20502;-69
2022/02/04 14:11:36;;;;;;;1.57;1.47;;;8.70;99.90;;;;;;5014386;28;20487;-69
2022/02/04 14:14:27;;;;;;;2.80;1.97;;;8.60;99.90;;;;;;5014066;28;20455;-69
2022/02/04 14:16:55;;;;;;;3.67;1.70;;;8.60;99.90;;;;;;5007579;28;20447;-69
2022/02/04 14:19:23;;;;;;;2.70;2.50;;;8.60;99.90;;;;;;5014085;28;20404;-69
2022/02/04 14:21:48;;;;;;;3.20;2.90;;;8.60;99.90;;;;;;5013486;28;20430;-69
2022/02/04 14:24:15;;;;;;;3.97;1.80;;;8.60;99.90;;;;;;5014303;28;20497;-69
2022/02/04 14:26:44;;;;;;;2.77;2.27;;;8.50;99.90;;;;;;5013876;28;20204;-69
2022/02/04 14:29:40;;;;;;;3.60;2.20;;;8.50;99.90;;;;;;5013957;28;20409;-69
2022/02/04 14:32:03;;;;;;;4.00;2.10;;;8.60;99.90;;;;;;5013546;28;20415;-69
2022/02/04 14:50:54;;;;;;;1.13;1.03;;;8.50;99.90;;;;;;5013707;28;20442;-67
2022/02/04 14:53:23;;;;;;;2.20;1.53;;;8.50;99.90;;;;;;5013337;28;20411;-68
2022/02/04 15:01:16;;;;;;;1.27;1.17;;;8.40;99.90;;;;;;5013611;28;20404;-68
2022/02/04 15:03:54;;;;;;;1.30;1.20;;;8.50;99.90;;;;;;5013464;28;20458;-68
2022/02/04 15:06:30;;;;;;;2.80;1.40;;;8.40;99.90;;;;;;5013243;28;20439;-68
2022/02/04 15:08:56;;;;;;;2.47;2.27;;;8.40;99.90;;;;;;5013580;28;20407;-67
2022/02/04 15:11:29;;;;;;;4.30;2.70;;;8.50;99.90;;;;;;5013072;28;20936;-68
2022/02/04 15:13:55;;;;;;;2.53;1.87;;;8.50;99.90;;;;;;5013121;28;20219;-68
2022/02/04 15:16:21;;;;;;;1.87;1.70;;;8.40;99.90;;;;;;5013094;28;20462;-68
2022/02/04 15:18:46;;;;;;;1.73;1.43;;;8.40;99.90;;;;;;5012778;28;20423;-68
2022/02/04 15:21:17;;;;;;;1.83;1.73;;;8.50;99.90;;;;;;5012903;28;20173;-68
2022/02/04 15:23:47;;;;;;;2.00;1.80;;;8.40;99.90;;;;;;5012679;28;20176;-67
2022/02/04 15:26:14;;;;;;;1.80;1.40;;;8.40;99.90;;;;;;5012653;28;20450;-68
2022/02/04 15:28:43;;;;;;;1.47;1.20;;;8.40;99.90;;;;;;5012863;28;20830;-68
2022/02/04 15:31:20;;;;;;;3.23;1.77;;;8.40;99.90;;;;;;5012657;28;20428;-68
2022/02/04 15:33:47;;;;;;;4.20;1.43;;;8.40;99.90;;;;;;5013071;28;20426;-68
2022/02/04 15:36:13;;;;;;;1.63;1.50;;;8.40;99.90;;;;;;5012830;28;20839;-68
2022/02/04 15:38:39;;;;;;;1.40;1.17;;;8.40;99.90;;;;;;5012799;28;20454;-68
2022/02/04 15:41:07;;;;;;;1.10;1.03;;;8.30;99.90;;;;;;5012466;28;20411;-68
2022/02/04 15:43:32;;;;;;;1.20;1.10;;;8.40;99.90;;;;;;5012732;28;20199;-69
2022/02/04 15:46:41;;;;;;;1.33;1.23;;;8.30;99.90;;;;;;5012580;28;20432;-68
2022/02/04 15:52:36;;;;;;;2.40;1.77;;;8.30;99.90;;;;;;5012541;28;20407;-67
2022/02/04 15:57:18;;;;;;;1.10;1.00;;;8.30;99.90;;;;;;5012799;28;20502;-68
2022/02/04 16:00:00;;;;;;;2.90;1.80;;;8.30;99.90;;;;;;5012319;28;20399;-68
2022/02/04 16:02:41;;;;;;;2.70;1.83;;;8.30;99.90;;;;;;5012305;28;20934;-68
2022/02/04 16:05:08;;;;;;;2.97;2.13;;;8.30;99.90;;;;;;5012834;28;20423;-68
2022/02/04 16:07:34;;;;;;;4.60;3.23;;;8.30;99.90;;;;;;5012670;28;20457;-68
2022/02/04 16:12:54;;;;;;;1.23;1.10;;;8.30;99.90;;;;;;4984096;28;20200;-68
2022/02/04 16:15:39;;;;;;;1.90;1.60;;;8.30;99.90;;;;;;5012119;28;20987;-68
2022/02/04 16:18:13;;;;;;;2.70;1.67;;;8.30;99.90;;;;;;5012375;28;20921;-69
2022/02/04 16:20:57;;;;;;;1.53;1.27;;;8.30;99.90;;;;;;5011894;28;20399;-67
2022/02/04 16:23:33;;;;;;;1.20;0.70;;;8.20;99.90;;;;;;5011806;28;20748;-67
2022/02/04 16:28:43;;;;;;;1.30;1.20;;;8.20;99.90;;;;;;5011811;28;20477;-67
2022/02/04 16:31:14;;;;;;;1.20;1.10;;;8.20;99.90;;;;;;5011732;28;20475;-68
2022/02/04 16:33:43;;;;;;;1.20;1.10;;;8.20;99.90;;;;;;5011544;28;20188;-67
2022/02/04 16:36:15;;;;;;;0.70;0.70;;;8.20;99.90;;;;;;5011601;28;20449;-67
2022/02/04 16:38:44;;;;;;;0.80;0.73;;;8.20;99.90;;;;;;5011684;28;20512;-69
2022/02/04 16:41:12;;;;;;;0.87;0.87;;;8.20;99.90;;;;;;5011963;28;20845;-69
2022/02/04 16:43:39;;;;;;;0.70;0.70;;;8.20;99.90;;;;;;5011567;28;20413;-69
2022/02/04 16:46:06;;;;;;;1.97;1.03;;;8.10;99.90;;;;;;5011571;28;20427;-69
2022/02/04 16:48:37;;;;;;;0.80;0.80;;;8.20;99.90;;;;;;5011703;28;20838;-68
2022/02/04 16:51:04;;;;;;;1.20;1.10;;;8.10;99.90;;;;;;5011891;28;20407;-67
2022/02/04 16:53:30;;;;;;;1.17;1.07;;;8.20;99.90;;;;;;5011582;28;20490;-69
2022/02/04 16:55:56;;;;;;;0.80;0.80;;;8.20;99.90;;;;;;5011299;28;20972;-69
2022/02/04 16:58:22;;;;;;;1.27;0.77;;;8.20;99.90;;;;;;5011479;28;20478;-68
2022/02/04 17:00:47;;;;;;;0.70;0.70;;;8.20;99.90;;;;;;5011552;28;20180;-68
2022/02/04 17:03:13;;;;;;;0.90;0.90;;;8.20;99.90;;;;;;5011355;28;20172;-68
2022/02/04 17:05:50;;;;;;;1.00;1.00;;;8.10;99.90;;;;;;5011294;28;20342;-68
2022/02/04 17:08:23;;;;;;;1.23;1.13;;;8.10;99.90;;;;;;5011643;28;20233;-68
2022/02/04 17:10:54;;;;;;;1.00;0.90;;;8.10;99.90;;;;;;5011528;28;20420;-68
2022/02/04 17:13:23;;;;;;;0.90;0.90;;;8.10;99.90;;;;;;5011410;28;20982;-68
2022/02/04 17:15:48;;;;;;;1.23;0.90;;;8.10;99.90;;;;;;5032541;23;20493;-72
2022/02/04 17:18:13;;;;;;;0.90;0.80;;;8.10;99.90;;;;;;5012030;28;20415;-73
2022/02/04 17:20:40;;;;;;;1.30;1.10;;;8.10;99.90;;;;;;5012353;28;20533;-74
2022/02/04 17:23:09;;;;;;;0.97;0.87;;;8.10;99.90;;;;;;5011858;28;20299;-74
2022/02/04 17:25:35;;;;;;;1.20;0.90;;;8.10;99.90;;;;;;5010415;28;20506;-74
2022/02/04 17:28:02;;;;;;;1.03;1.00;;;8.10;99.90;;;;;;5012139;28;20434;-73
2022/02/04 17:30:28;;;;;;;1.63;0.80;;;8.10;99.90;;;;;;5010250;28;20513;-73
2022/02/04 17:32:54;;;;;;;1.60;1.03;;;8.10;99.90;;;;;;5011779;28;20431;-72
2022/02/04 17:35:21;;;;;;;1.17;1.07;;;8.10;99.90;;;;;;5011414;28;20219;-72
2022/02/04 17:37:47;;;;;;;0.90;0.90;;;8.10;99.90;;;;;;5011598;28;20909;-72
2022/02/04 17:40:15;;;;;;;1.87;1.03;;;8.00;99.90;;;;;;5011913;28;20399;-73
2022/02/04 17:42:43;;;;;;;0.70;0.70;;;8.00;99.90;;;;;;5011467;28;20399;-72
2022/02/04 17:45:11;;;;;;;0.90;0.90;;;8.10;99.90;;;;;;5011614;28;20501;-72
2022/02/04 17:47:38;;;;;;;1.83;1.73;;;8.10;99.90;;;;;;5011833;28;21088;-72
2022/02/04 17:50:11;;;;;;;0.97;0.90;;;8.00;99.90;;;;;;5011470;28;20454;-72
2022/02/04 17:52:43;;;;;;;1.70;1.10;;;8.00;99.90;;;;;;5011576;28;20498;-73
2022/02/04 17:55:17;;;;;;;1.00;0.90;;;8.00;99.90;;;;;;5013006;28;20481;-72
2022/02/04 17:57:49;;;;;;;1.00;1.00;;;8.00;99.90;;;;;;5015324;28;20469;-73
2022/02/04 18:08:24;;;;;;;1.57;1.10;;;8.00;99.90;;;;;;5015159;28;20411;-73
2022/02/04 18:10:50;;;;;;;0.97;0.93;;;8.00;99.90;;;;;;5014654;28;20424;-73
2022/02/04 18:13:16;;;;;;;0.90;0.90;;;8.00;99.90;;;;;;5014733;28;20411;-73
2022/02/04 18:15:42;;;;;;;1.73;1.23;;;8.00;99.90;;;;;;5014368;28;20794;-74